Etusivu
METAR-TAF:

METAR-TAF

Lentoasemat :

Røros, Norja

Leveyspiiri: 62-35N, Pituuspiiri: 011-21E, korkeus merenpinnasta: 626 m

Tämänhetkinen sää

Tämä raportti tehtiin 14 minuuttia sitten, kello 00.50 UTC
Tuuli 2 kn lännestä/lounaasta
Lämpötila 11°C
Kosteus 100%
Ilmanpaine 1009 hPa
Näkyvyys 10 km tai enemmän

METAR: ENRO 220050Z AUTO 24002KT 9999NDV OVC025/// 11/11 Q1009

Aika: 03:04 (01:04 UTC)


TAF: puuttuu

Säähavainnot ja -ennusteet yli 4000 lentoasemalta (METAR- ja TAF-raportit).

Käytössä olevat sääasemat on merkitty karttaan keltaisilla ja punaisilla pisteillä.

Aseta hiiri pisteen päälle nähdäksesi sääaseman nimen.

Klikkaa sitten nähdäksesi säähavainnot ja -ennusteet.

Kartan vaihtaminen: klikkaa mustalla rastilla varustettuja vihreitä pisteitä, niin voit zoomata sisään; viivalla varustettua vihreää pistettä, niin voit zoomata ulos tai vihreitä nuolia, niin pääset viereisille kartoille.


METAR-TAF: